sensor_id;sensor_type;location;lat;lon;timestamp;P1;durP1;ratioP1;P2;durP2;ratioP2
16330;SDS011;8275;48.206;16.340;2022-10-16T00:00:01;20.23;;;18.20;;
16330;SDS011;8275;48.206;16.340;2022-10-16T00:02:32;21.85;;;19.55;;
16330;SDS011;8275;48.206;16.340;2022-10-16T00:05:00;19.92;;;17.88;;
16330;SDS011;8275;48.206;16.340;2022-10-16T00:07:28;25.38;;;18.95;;
16330;SDS011;8275;48.206;16.340;2022-10-16T00:09:57;20.50;;;18.35;;
16330;SDS011;8275;48.206;16.340;2022-10-16T00:12:25;21.27;;;19.02;;
16330;SDS011;8275;48.206;16.340;2022-10-16T00:14:54;20.67;;;18.58;;
16330;SDS011;8275;48.206;16.340;2022-10-16T00:17:22;25.52;;;22.85;;
16330;SDS011;8275;48.206;16.340;2022-10-16T00:19:52;21.73;;;19.15;;
16330;SDS011;8275;48.206;16.340;2022-10-16T00:22:20;23.98;;;21.25;;
16330;SDS011;8275;48.206;16.340;2022-10-16T00:24:49;23.55;;;20.70;;
16330;SDS011;8275;48.206;16.340;2022-10-16T00:27:18;26.17;;;20.95;;
16330;SDS011;8275;48.206;16.340;2022-10-16T00:29:49;26.73;;;20.20;;
16330;SDS011;8275;48.206;16.340;2022-10-16T00:32:18;20.77;;;18.45;;
16330;SDS011;8275;48.206;16.340;2022-10-16T00:34:46;21.33;;;19.13;;
16330;SDS011;8275;48.206;16.340;2022-10-16T00:37:16;19.88;;;17.83;;
16330;SDS011;8275;48.206;16.340;2022-10-16T00:39:44;24.23;;;21.90;;
16330;SDS011;8275;48.206;16.340;2022-10-16T00:42:14;24.88;;;20.48;;
16330;SDS011;8275;48.206;16.340;2022-10-16T00:44:46;21.98;;;19.50;;
16330;SDS011;8275;48.206;16.340;2022-10-16T00:47:19;20.88;;;18.58;;
16330;SDS011;8275;48.206;16.340;2022-10-16T00:49:55;25.73;;;19.42;;
16330;SDS011;8275;48.206;16.340;2022-10-16T00:52:30;21.33;;;19.23;;
16330;SDS011;8275;48.206;16.340;2022-10-16T00:55:00;22.33;;;18.38;;
16330;SDS011;8275;48.206;16.340;2022-10-16T00:57:31;23.63;;;19.17;;
16330;SDS011;8275;48.206;16.340;2022-10-16T01:00:00;24.42;;;18.80;;
16330;SDS011;8275;48.206;16.340;2022-10-16T01:02:30;19.48;;;17.13;;
16330;SDS011;8275;48.206;16.340;2022-10-16T01:04:58;18.77;;;16.33;;
16330;SDS011;8275;48.206;16.340;2022-10-16T01:07:33;19.85;;;17.38;;
16330;SDS011;8275;48.206;16.340;2022-10-16T01:10:11;20.80;;;16.45;;
16330;SDS011;8275;48.206;16.340;2022-10-16T01:12:51;19.77;;;16.23;;
16330;SDS011;8275;48.206;16.340;2022-10-16T01:15:26;19.85;;;17.80;;
16330;SDS011;8275;48.206;16.340;2022-10-16T01:17:59;18.73;;;16.08;;
16330;SDS011;8275;48.206;16.340;2022-10-16T01:20:33;21.20;;;17.67;;
16330;SDS011;8275;48.206;16.340;2022-10-16T01:23:14;20.27;;;18.25;;
16330;SDS011;8275;48.206;16.340;2022-10-16T01:28:57;18.48;;;16.60;;
16330;SDS011;8275;48.206;16.340;2022-10-16T01:31:33;16.48;;;14.70;;
16330;SDS011;8275;48.206;16.340;2022-10-16T01:34:08;21.15;;;18.95;;
16330;SDS011;8275;48.206;16.340;2022-10-16T01:36:45;19.25;;;17.25;;
16330;SDS011;8275;48.206;16.340;2022-10-16T01:39:19;17.67;;;15.90;;
16330;SDS011;8275;48.206;16.340;2022-10-16T01:41:54;20.63;;;17.80;;
16330;SDS011;8275;48.206;16.340;2022-10-16T01:44:29;18.95;;;17.05;;
16330;SDS011;8275;48.206;16.340;2022-10-16T01:47:02;20.90;;;17.30;;
16330;SDS011;8275;48.206;16.340;2022-10-16T01:49:33;20.92;;;18.10;;
16330;SDS011;8275;48.206;16.340;2022-10-16T01:52:06;18.25;;;16.45;;
16330;SDS011;8275;48.206;16.340;2022-10-16T01:54:42;22.23;;;18.20;;
16330;SDS011;8275;48.206;16.340;2022-10-16T01:57:14;20.75;;;18.50;;
16330;SDS011;8275;48.206;16.340;2022-10-16T01:59:47;21.42;;;18.42;;
16330;SDS011;8275;48.206;16.340;2022-10-16T02:02:19;24.13;;;19.42;;
16330;SDS011;8275;48.206;16.340;2022-10-16T02:04:51;19.15;;;17.25;;
16330;SDS011;8275;48.206;16.340;2022-10-16T02:07:25;21.00;;;18.92;;
16330;SDS011;8275;48.206;16.340;2022-10-16T02:09:53;19.17;;;17.20;;
16330;SDS011;8275;48.206;16.340;2022-10-16T02:12:24;18.95;;;16.95;;
16330;SDS011;8275;48.206;16.340;2022-10-16T02:14:57;18.98;;;16.23;;
16330;SDS011;8275;48.206;16.340;2022-10-16T02:17:25;20.80;;;18.63;;
16330;SDS011;8275;48.206;16.340;2022-10-16T02:19:55;17.52;;;15.85;;
16330;SDS011;8275;48.206;16.340;2022-10-16T02:22:26;17.02;;;15.23;;
16330;SDS011;8275;48.206;16.340;2022-10-16T02:25:01;20.95;;;18.40;;
16330;SDS011;8275;48.206;16.340;2022-10-16T02:27:37;13.70;;;12.27;;
16330;SDS011;8275;48.206;16.340;2022-10-16T02:30:14;17.58;;;14.40;;
16330;SDS011;8275;48.206;16.340;2022-10-16T02:32:50;17.70;;;15.88;;
16330;SDS011;8275;48.206;16.340;2022-10-16T02:35:21;19.63;;;16.55;;
16330;SDS011;8275;48.206;16.340;2022-10-16T02:37:51;16.95;;;15.15;;
16330;SDS011;8275;48.206;16.340;2022-10-16T02:40:21;15.90;;;14.20;;
16330;SDS011;8275;48.206;16.340;2022-10-16T02:42:51;17.40;;;14.60;;
16330;SDS011;8275;48.206;16.340;2022-10-16T02:45:22;16.00;;;14.48;;
16330;SDS011;8275;48.206;16.340;2022-10-16T02:47:51;15.05;;;13.48;;
16330;SDS011;8275;48.206;16.340;2022-10-16T02:50:20;17.85;;;15.93;;
16330;SDS011;8275;48.206;16.340;2022-10-16T02:52:48;15.63;;;14.02;;
16330;SDS011;8275;48.206;16.340;2022-10-16T02:55:16;15.65;;;13.88;;
16330;SDS011;8275;48.206;16.340;2022-10-16T02:57:45;16.30;;;14.68;;
16330;SDS011;8275;48.206;16.340;2022-10-16T03:00:14;16.20;;;14.30;;
16330;SDS011;8275;48.206;16.340;2022-10-16T03:02:45;15.98;;;13.82;;
16330;SDS011;8275;48.206;16.340;2022-10-16T03:05:14;18.77;;;15.18;;
16330;SDS011;8275;48.206;16.340;2022-10-16T03:07:43;15.05;;;13.60;;
16330;SDS011;8275;48.206;16.340;2022-10-16T03:10:11;15.75;;;14.13;;
16330;SDS011;8275;48.206;16.340;2022-10-16T03:12:40;16.08;;;14.48;;
16330;SDS011;8275;48.206;16.340;2022-10-16T03:15:09;16.65;;;15.15;;
16330;SDS011;8275;48.206;16.340;2022-10-16T03:17:37;17.27;;;14.75;;
16330;SDS011;8275;48.206;16.340;2022-10-16T03:20:08;14.52;;;13.23;;
16330;SDS011;8275;48.206;16.340;2022-10-16T03:22:37;16.00;;;13.18;;
16330;SDS011;8275;48.206;16.340;2022-10-16T03:25:06;15.05;;;13.57;;
16330;SDS011;8275;48.206;16.340;2022-10-16T03:27:35;16.92;;;14.05;;
16330;SDS011;8275;48.206;16.340;2022-10-16T03:30:04;14.45;;;12.98;;
16330;SDS011;8275;48.206;16.340;2022-10-16T03:32:34;17.15;;;15.45;;
16330;SDS011;8275;48.206;16.340;2022-10-16T03:35:03;15.18;;;13.57;;
16330;SDS011;8275;48.206;16.340;2022-10-16T03:37:33;18.45;;;16.05;;
16330;SDS011;8275;48.206;16.340;2022-10-16T03:40:02;15.05;;;13.60;;
16330;SDS011;8275;48.206;16.340;2022-10-16T03:42:32;14.95;;;13.52;;
16330;SDS011;8275;48.206;16.340;2022-10-16T03:45:00;17.50;;;13.68;;
16330;SDS011;8275;48.206;16.340;2022-10-16T03:47:29;15.52;;;14.00;;
16330;SDS011;8275;48.206;16.340;2022-10-16T03:49:59;15.65;;;14.05;;
16330;SDS011;8275;48.206;16.340;2022-10-16T03:52:27;18.65;;;13.35;;
16330;SDS011;8275;48.206;16.340;2022-10-16T03:54:57;15.95;;;13.20;;
16330;SDS011;8275;48.206;16.340;2022-10-16T03:57:26;13.80;;;12.52;;
16330;SDS011;8275;48.206;16.340;2022-10-16T03:59:55;15.05;;;11.55;;
16330;SDS011;8275;48.206;16.340;2022-10-16T04:02:23;15.02;;;13.55;;
16330;SDS011;8275;48.206;16.340;2022-10-16T04:04:51;15.30;;;12.18;;
16330;SDS011;8275;48.206;16.340;2022-10-16T04:07:20;13.02;;;11.73;;
16330;SDS011;8275;48.206;16.340;2022-10-16T04:09:48;14.10;;;12.77;;
16330;SDS011;8275;48.206;16.340;2022-10-16T04:12:19;13.43;;;12.02;;
16330;SDS011;8275;48.206;16.340;2022-10-16T04:14:48;13.48;;;12.20;;
16330;SDS011;8275;48.206;16.340;2022-10-16T04:17:16;15.55;;;14.00;;
16330;SDS011;8275;48.206;16.340;2022-10-16T04:19:44;13.90;;;12.57;;
16330;SDS011;8275;48.206;16.340;2022-10-16T04:22:13;14.00;;;12.52;;
16330;SDS011;8275;48.206;16.340;2022-10-16T04:24:41;14.77;;;13.15;;
16330;SDS011;8275;48.206;16.340;2022-10-16T04:27:09;14.63;;;12.45;;
16330;SDS011;8275;48.206;16.340;2022-10-16T04:29:39;13.80;;;12.50;;
16330;SDS011;8275;48.206;16.340;2022-10-16T04:32:08;13.88;;;12.60;;
16330;SDS011;8275;48.206;16.340;2022-10-16T04:34:38;16.20;;;13.05;;
16330;SDS011;8275;48.206;16.340;2022-10-16T04:37:07;18.98;;;15.60;;
16330;SDS011;8275;48.206;16.340;2022-10-16T04:39:36;17.42;;;15.63;;
16330;SDS011;8275;48.206;16.340;2022-10-16T04:42:04;19.42;;;15.15;;
16330;SDS011;8275;48.206;16.340;2022-10-16T04:44:32;18.08;;;16.10;;
16330;SDS011;8275;48.206;16.340;2022-10-16T04:47:02;18.45;;;16.15;;
16330;SDS011;8275;48.206;16.340;2022-10-16T04:49:31;19.10;;;16.63;;
16330;SDS011;8275;48.206;16.340;2022-10-16T04:51:59;16.13;;;14.38;;
16330;SDS011;8275;48.206;16.340;2022-10-16T04:54:27;14.27;;;12.75;;
16330;SDS011;8275;48.206;16.340;2022-10-16T04:56:56;19.38;;;14.90;;
16330;SDS011;8275;48.206;16.340;2022-10-16T04:59:24;21.60;;;14.43;;
16330;SDS011;8275;48.206;16.340;2022-10-16T05:01:52;17.05;;;13.95;;
16330;SDS011;8275;48.206;16.340;2022-10-16T05:04:22;13.75;;;12.40;;
16330;SDS011;8275;48.206;16.340;2022-10-16T05:06:51;14.25;;;11.95;;
16330;SDS011;8275;48.206;16.340;2022-10-16T05:09:19;16.50;;;14.75;;
16330;SDS011;8275;48.206;16.340;2022-10-16T05:11:48;13.95;;;12.55;;
16330;SDS011;8275;48.206;16.340;2022-10-16T05:14:16;13.93;;;11.43;;
16330;SDS011;8275;48.206;16.340;2022-10-16T05:16:44;16.60;;;13.93;;
16330;SDS011;8275;48.206;16.340;2022-10-16T05:19:14;16.65;;;14.90;;
16330;SDS011;8275;48.206;16.340;2022-10-16T05:21:59;15.02;;;13.57;;
16330;SDS011;8275;48.206;16.340;2022-10-16T05:24:28;17.58;;;13.48;;
16330;SDS011;8275;48.206;16.340;2022-10-16T05:26:56;16.98;;;13.45;;
16330;SDS011;8275;48.206;16.340;2022-10-16T05:29:25;13.18;;;11.50;;
16330;SDS011;8275;48.206;16.340;2022-10-16T05:31:53;11.18;;;10.18;;
16330;SDS011;8275;48.206;16.340;2022-10-16T05:34:21;14.20;;;12.07;;
16330;SDS011;8275;48.206;16.340;2022-10-16T05:36:50;12.75;;;11.45;;
16330;SDS011;8275;48.206;16.340;2022-10-16T05:39:20;15.48;;;13.88;;
16330;SDS011;8275;48.206;16.340;2022-10-16T05:41:49;12.82;;;11.57;;
16330;SDS011;8275;48.206;16.340;2022-10-16T05:44:18;12.60;;;11.27;;
16330;SDS011;8275;48.206;16.340;2022-10-16T05:46:47;12.43;;;11.02;;
16330;SDS011;8275;48.206;16.340;2022-10-16T05:49:15;9.32;;;8.35;;
16330;SDS011;8275;48.206;16.340;2022-10-16T05:51:44;13.73;;;10.48;;
16330;SDS011;8275;48.206;16.340;2022-10-16T05:54:12;11.10;;;9.98;;
16330;SDS011;8275;48.206;16.340;2022-10-16T05:56:42;13.50;;;11.82;;
16330;SDS011;8275;48.206;16.340;2022-10-16T05:59:11;13.95;;;12.20;;
16330;SDS011;8275;48.206;16.340;2022-10-16T06:01:39;15.60;;;13.00;;
16330;SDS011;8275;48.206;16.340;2022-10-16T06:04:08;15.02;;;13.43;;
16330;SDS011;8275;48.206;16.340;2022-10-16T06:06:41;15.10;;;13.70;;
16330;SDS011;8275;48.206;16.340;2022-10-16T06:09:09;13.88;;;11.20;;
16330;SDS011;8275;48.206;16.340;2022-10-16T06:11:38;15.85;;;14.25;;
16330;SDS011;8275;48.206;16.340;2022-10-16T06:14:08;13.23;;;11.82;;
16330;SDS011;8275;48.206;16.340;2022-10-16T06:16:37;12.77;;;11.52;;
16330;SDS011;8275;48.206;16.340;2022-10-16T06:19:05;15.52;;;12.48;;
16330;SDS011;8275;48.206;16.340;2022-10-16T06:21:34;16.50;;;14.52;;
16330;SDS011;8275;48.206;16.340;2022-10-16T06:24:03;15.27;;;13.27;;
16330;SDS011;8275;48.206;16.340;2022-10-16T06:26:31;14.27;;;12.80;;
16330;SDS011;8275;48.206;16.340;2022-10-16T06:29:00;17.80;;;15.82;;
16330;SDS011;8275;48.206;16.340;2022-10-16T06:31:30;15.70;;;14.07;;
16330;SDS011;8275;48.206;16.340;2022-10-16T06:33:59;14.38;;;11.32;;
16330;SDS011;8275;48.206;16.340;2022-10-16T06:36:28;17.90;;;14.32;;
16330;SDS011;8275;48.206;16.340;2022-10-16T06:38:56;14.57;;;12.90;;
16330;SDS011;8275;48.206;16.340;2022-10-16T06:41:25;14.70;;;13.00;;
16330;SDS011;8275;48.206;16.340;2022-10-16T06:43:53;14.65;;;13.15;;
16330;SDS011;8275;48.206;16.340;2022-10-16T06:46:23;16.65;;;13.90;;
16330;SDS011;8275;48.206;16.340;2022-10-16T06:48:54;21.77;;;17.33;;
16330;SDS011;8275;48.206;16.340;2022-10-16T06:51:23;17.73;;;15.50;;
16330;SDS011;8275;48.206;16.340;2022-10-16T06:53:53;17.02;;;15.32;;
16330;SDS011;8275;48.206;16.340;2022-10-16T06:56:29;18.27;;;16.42;;
16330;SDS011;8275;48.206;16.340;2022-10-16T06:59:00;21.90;;;18.02;;
16330;SDS011;8275;48.206;16.340;2022-10-16T07:01:29;20.73;;;15.80;;
16330;SDS011;8275;48.206;16.340;2022-10-16T07:03:59;16.42;;;14.82;;
16330;SDS011;8275;48.206;16.340;2022-10-16T07:06:30;18.50;;;16.55;;
16330;SDS011;8275;48.206;16.340;2022-10-16T07:09:02;16.77;;;15.05;;
16330;SDS011;8275;48.206;16.340;2022-10-16T07:11:34;18.05;;;16.02;;
16330;SDS011;8275;48.206;16.340;2022-10-16T07:14:05;17.33;;;14.80;;
16330;SDS011;8275;48.206;16.340;2022-10-16T07:16:42;15.98;;;14.27;;
16330;SDS011;8275;48.206;16.340;2022-10-16T07:19:12;15.45;;;13.93;;
16330;SDS011;8275;48.206;16.340;2022-10-16T07:21:43;17.38;;;15.27;;
16330;SDS011;8275;48.206;16.340;2022-10-16T07:24:13;15.32;;;13.80;;
16330;SDS011;8275;48.206;16.340;2022-10-16T07:26:43;20.27;;;13.93;;
16330;SDS011;8275;48.206;16.340;2022-10-16T07:29:13;17.33;;;15.50;;
16330;SDS011;8275;48.206;16.340;2022-10-16T07:31:43;18.13;;;16.17;;
16330;SDS011;8275;48.206;16.340;2022-10-16T07:34:14;17.65;;;15.90;;
16330;SDS011;8275;48.206;16.340;2022-10-16T07:36:47;19.50;;;15.95;;
16330;SDS011;8275;48.206;16.340;2022-10-16T07:39:16;24.20;;;18.10;;
16330;SDS011;8275;48.206;16.340;2022-10-16T07:41:45;16.98;;;15.23;;
16330;SDS011;8275;48.206;16.340;2022-10-16T07:44:15;18.92;;;16.67;;
16330;SDS011;8275;48.206;16.340;2022-10-16T07:46:43;16.95;;;15.20;;
16330;SDS011;8275;48.206;16.340;2022-10-16T07:49:13;17.95;;;15.07;;
16330;SDS011;8275;48.206;16.340;2022-10-16T07:51:41;17.58;;;15.82;;
16330;SDS011;8275;48.206;16.340;2022-10-16T07:54:10;17.25;;;15.45;;
16330;SDS011;8275;48.206;16.340;2022-10-16T07:56:38;17.45;;;15.57;;
16330;SDS011;8275;48.206;16.340;2022-10-16T07:59:09;18.38;;;16.48;;
16330;SDS011;8275;48.206;16.340;2022-10-16T08:01:38;30.35;;;18.08;;
16330;SDS011;8275;48.206;16.340;2022-10-16T08:04:08;17.90;;;16.00;;
16330;SDS011;8275;48.206;16.340;2022-10-16T08:06:39;17.35;;;15.65;;
16330;SDS011;8275;48.206;16.340;2022-10-16T08:09:08;20.10;;;17.58;;
16330;SDS011;8275;48.206;16.340;2022-10-16T08:11:37;17.25;;;15.50;;
16330;SDS011;8275;48.206;16.340;2022-10-16T08:14:05;18.33;;;16.23;;
16330;SDS011;8275;48.206;16.340;2022-10-16T08:16:33;18.88;;;16.52;;
16330;SDS011;8275;48.206;16.340;2022-10-16T08:19:02;17.88;;;16.02;;
16330;SDS011;8275;48.206;16.340;2022-10-16T08:21:30;18.65;;;16.75;;
16330;SDS011;8275;48.206;16.340;2022-10-16T08:24:00;16.67;;;14.50;;
16330;SDS011;8275;48.206;16.340;2022-10-16T08:26:29;19.02;;;17.15;;
16330;SDS011;8275;48.206;16.340;2022-10-16T08:28:57;16.98;;;15.18;;
16330;SDS011;8275;48.206;16.340;2022-10-16T08:31:26;17.23;;;14.68;;
16330;SDS011;8275;48.206;16.340;2022-10-16T08:33:54;19.05;;;17.13;;
16330;SDS011;8275;48.206;16.340;2022-10-16T08:36:23;17.80;;;15.95;;
16330;SDS011;8275;48.206;16.340;2022-10-16T08:38:51;14.75;;;13.45;;
16330;SDS011;8275;48.206;16.340;2022-10-16T08:41:29;14.95;;;13.43;;
16330;SDS011;8275;48.206;16.340;2022-10-16T08:44:51;13.85;;;12.65;;
16330;SDS011;8275;48.206;16.340;2022-10-16T08:48:00;15.05;;;13.48;;
16330;SDS011;8275;48.206;16.340;2022-10-16T08:50:41;15.73;;;13.85;;
16330;SDS011;8275;48.206;16.340;2022-10-16T08:53:11;16.90;;;15.40;;
16330;SDS011;8275;48.206;16.340;2022-10-16T08:55:49;16.52;;;14.68;;
16330;SDS011;8275;48.206;16.340;2022-10-16T08:58:22;14.77;;;13.23;;
16330;SDS011;8275;48.206;16.340;2022-10-16T09:00:56;13.18;;;11.93;;
16330;SDS011;8275;48.206;16.340;2022-10-16T09:03:31;15.55;;;14.05;;
16330;SDS011;8275;48.206;16.340;2022-10-16T09:06:16;16.02;;;13.52;;
16330;SDS011;8275;48.206;16.340;2022-10-16T09:09:02;14.63;;;13.23;;
16330;SDS011;8275;48.206;16.340;2022-10-16T09:11:52;14.93;;;13.52;;
16330;SDS011;8275;48.206;16.340;2022-10-16T09:14:35;14.65;;;13.25;;
16330;SDS011;8275;48.206;16.340;2022-10-16T09:17:22;16.45;;;12.82;;
16330;SDS011;8275;48.206;16.340;2022-10-16T09:20:06;16.50;;;14.63;;
16330;SDS011;8275;48.206;16.340;2022-10-16T09:23:00;13.48;;;12.27;;
16330;SDS011;8275;48.206;16.340;2022-10-16T09:25:43;15.13;;;13.48;;
16330;SDS011;8275;48.206;16.340;2022-10-16T09:28:15;13.93;;;12.65;;
16330;SDS011;8275;48.206;16.340;2022-10-16T09:30:46;15.75;;;14.35;;
16330;SDS011;8275;48.206;16.340;2022-10-16T09:33:17;13.98;;;12.52;;
16330;SDS011;8275;48.206;16.340;2022-10-16T09:35:49;18.15;;;16.23;;
16330;SDS011;8275;48.206;16.340;2022-10-16T09:38:25;16.80;;;15.10;;
16330;SDS011;8275;48.206;16.340;2022-10-16T09:40:56;16.00;;;14.50;;
16330;SDS011;8275;48.206;16.340;2022-10-16T09:43:31;13.63;;;12.20;;
16330;SDS011;8275;48.206;16.340;2022-10-16T09:46:08;14.23;;;11.75;;
16330;SDS011;8275;48.206;16.340;2022-10-16T09:48:53;14.50;;;13.10;;
16330;SDS011;8275;48.206;16.340;2022-10-16T09:51:26;13.40;;;12.00;;
16330;SDS011;8275;48.206;16.340;2022-10-16T09:53:58;15.05;;;13.35;;
16330;SDS011;8275;48.206;16.340;2022-10-16T09:56:29;15.63;;;14.10;;
16330;SDS011;8275;48.206;16.340;2022-10-16T09:59:00;14.50;;;13.20;;
16330;SDS011;8275;48.206;16.340;2022-10-16T10:01:38;14.07;;;12.50;;
16330;SDS011;8275;48.206;16.340;2022-10-16T10:04:08;16.35;;;14.85;;
16330;SDS011;8275;48.206;16.340;2022-10-16T10:06:40;13.98;;;12.57;;
16330;SDS011;8275;48.206;16.340;2022-10-16T10:09:16;13.48;;;12.25;;
16330;SDS011;8275;48.206;16.340;2022-10-16T10:11:49;16.27;;;14.18;;
16330;SDS011;8275;48.206;16.340;2022-10-16T10:14:25;15.18;;;13.70;;
16330;SDS011;8275;48.206;16.340;2022-10-16T10:17:10;14.65;;;13.18;;
16330;SDS011;8275;48.206;16.340;2022-10-16T10:19:44;13.82;;;12.68;;
16330;SDS011;8275;48.206;16.340;2022-10-16T10:22:17;15.88;;;14.10;;
16330;SDS011;8275;48.206;16.340;2022-10-16T10:25:00;16.27;;;14.68;;
16330;SDS011;8275;48.206;16.340;2022-10-16T10:28:18;18.33;;;14.52;;
16330;SDS011;8275;48.206;16.340;2022-10-16T10:31:16;14.90;;;13.52;;
16330;SDS011;8275;48.206;16.340;2022-10-16T10:33:54;13.75;;;12.40;;
16330;SDS011;8275;48.206;16.340;2022-10-16T10:36:32;27.08;;;13.98;;
16330;SDS011;8275;48.206;16.340;2022-10-16T10:39:05;17.15;;;15.20;;
16330;SDS011;8275;48.206;16.340;2022-10-16T10:44:52;16.02;;;14.45;;
16330;SDS011;8275;48.206;16.340;2022-10-16T10:47:43;15.45;;;13.95;;
16330;SDS011;8275;48.206;16.340;2022-10-16T10:50:29;15.95;;;14.38;;
16330;SDS011;8275;48.206;16.340;2022-10-16T10:53:07;16.77;;;14.85;;
16330;SDS011;8275;48.206;16.340;2022-10-16T10:55:51;15.15;;;13.57;;
16330;SDS011;8275;48.206;16.340;2022-10-16T10:58:35;15.18;;;13.57;;
16330;SDS011;8275;48.206;16.340;2022-10-16T11:01:26;15.25;;;13.75;;
16330;SDS011;8275;48.206;16.340;2022-10-16T11:04:20;14.77;;;13.48;;
16330;SDS011;8275;48.206;16.340;2022-10-16T11:07:09;17.35;;;15.65;;
16330;SDS011;8275;48.206;16.340;2022-10-16T11:09:47;15.32;;;13.73;;
16330;SDS011;8275;48.206;16.340;2022-10-16T11:12:20;15.05;;;13.65;;
16330;SDS011;8275;48.206;16.340;2022-10-16T11:14:54;16.65;;;15.15;;
16330;SDS011;8275;48.206;16.340;2022-10-16T11:17:30;14.57;;;13.25;;
16330;SDS011;8275;48.206;16.340;2022-10-16T11:20:05;13.35;;;12.10;;
16330;SDS011;8275;48.206;16.340;2022-10-16T11:22:44;14.30;;;12.90;;
16330;SDS011;8275;48.206;16.340;2022-10-16T11:25:18;17.77;;;16.10;;
16330;SDS011;8275;48.206;16.340;2022-10-16T11:27:51;14.73;;;13.18;;
16330;SDS011;8275;48.206;16.340;2022-10-16T11:30:26;13.90;;;12.60;;
16330;SDS011;8275;48.206;16.340;2022-10-16T11:33:02;16.10;;;14.48;;
16330;SDS011;8275;48.206;16.340;2022-10-16T11:35:47;16.00;;;14.55;;
16330;SDS011;8275;48.206;16.340;2022-10-16T11:38:23;17.17;;;15.48;;
16330;SDS011;8275;48.206;16.340;2022-10-16T11:40:58;16.65;;;15.15;;
16330;SDS011;8275;48.206;16.340;2022-10-16T11:43:37;15.05;;;13.55;;
16330;SDS011;8275;48.206;16.340;2022-10-16T11:46:11;14.48;;;13.18;;
16330;SDS011;8275;48.206;16.340;2022-10-16T11:48:45;17.13;;;15.57;;
16330;SDS011;8275;48.206;16.340;2022-10-16T11:51:22;14.80;;;13.38;;
16330;SDS011;8275;48.206;16.340;2022-10-16T11:53:59;15.63;;;14.10;;
16330;SDS011;8275;48.206;16.340;2022-10-16T11:56:36;15.95;;;14.38;;
16330;SDS011;8275;48.206;16.340;2022-10-16T11:59:10;16.38;;;14.88;;
16330;SDS011;8275;48.206;16.340;2022-10-16T12:01:47;17.27;;;15.55;;
16330;SDS011;8275;48.206;16.340;2022-10-16T12:04:21;15.88;;;14.55;;
16330;SDS011;8275;48.206;16.340;2022-10-16T12:07:01;16.95;;;14.98;;
16330;SDS011;8275;48.206;16.340;2022-10-16T12:09:36;15.90;;;14.30;;
16330;SDS011;8275;48.206;16.340;2022-10-16T12:15:00;16.58;;;15.00;;
16330;SDS011;8275;48.206;16.340;2022-10-16T12:18:07;17.75;;;14.23;;
16330;SDS011;8275;48.206;16.340;2022-10-16T12:20:53;16.33;;;14.60;;
16330;SDS011;8275;48.206;16.340;2022-10-16T12:23:27;16.00;;;14.40;;
16330;SDS011;8275;48.206;16.340;2022-10-16T12:25:57;18.88;;;17.10;;
16330;SDS011;8275;48.206;16.340;2022-10-16T12:28:29;15.27;;;13.85;;
16330;SDS011;8275;48.206;16.340;2022-10-16T12:31:01;18.83;;;17.05;;
16330;SDS011;8275;48.206;16.340;2022-10-16T12:33:33;17.02;;;15.43;;
16330;SDS011;8275;48.206;16.340;2022-10-16T12:36:04;17.05;;;15.40;;
16330;SDS011;8275;48.206;16.340;2022-10-16T12:38:45;17.10;;;15.50;;
16330;SDS011;8275;48.206;16.340;2022-10-16T12:41:25;18.55;;;16.67;;
16330;SDS011;8275;48.206;16.340;2022-10-16T12:43:56;17.30;;;15.65;;
16330;SDS011;8275;48.206;16.340;2022-10-16T12:46:35;16.10;;;14.57;;
16330;SDS011;8275;48.206;16.340;2022-10-16T12:49:15;16.67;;;15.13;;
16330;SDS011;8275;48.206;16.340;2022-10-16T12:51:51;18.63;;;16.90;;
16330;SDS011;8275;48.206;16.340;2022-10-16T12:54:21;19.67;;;17.85;;
16330;SDS011;8275;48.206;16.340;2022-10-16T12:57:03;16.85;;;15.27;;
16330;SDS011;8275;48.206;16.340;2022-10-16T13:00:06;17.00;;;15.48;;
16330;SDS011;8275;48.206;16.340;2022-10-16T13:02:52;17.15;;;15.75;;
16330;SDS011;8275;48.206;16.340;2022-10-16T13:05:54;17.08;;;15.38;;
16330;SDS011;8275;48.206;16.340;2022-10-16T13:08:40;17.23;;;15.60;;
16330;SDS011;8275;48.206;16.340;2022-10-16T13:11:33;16.60;;;14.98;;
16330;SDS011;8275;48.206;16.340;2022-10-16T13:14:25;19.05;;;17.35;;
16330;SDS011;8275;48.206;16.340;2022-10-16T13:17:16;17.50;;;15.82;;
16330;SDS011;8275;48.206;16.340;2022-10-16T13:19:55;17.55;;;16.15;;
16330;SDS011;8275;48.206;16.340;2022-10-16T13:22:39;16.40;;;14.82;;
16330;SDS011;8275;48.206;16.340;2022-10-16T13:25:25;16.98;;;15.52;;
16330;SDS011;8275;48.206;16.340;2022-10-16T13:28:07;17.65;;;16.00;;
16330;SDS011;8275;48.206;16.340;2022-10-16T13:30:40;32.67;;;16.05;;
16330;SDS011;8275;48.206;16.340;2022-10-16T13:33:13;16.50;;;14.80;;
16330;SDS011;8275;48.206;16.340;2022-10-16T13:35:49;18.38;;;16.45;;
16330;SDS011;8275;48.206;16.340;2022-10-16T13:38:20;15.75;;;14.10;;
16330;SDS011;8275;48.206;16.340;2022-10-16T13:40:51;16.92;;;15.40;;
16330;SDS011;8275;48.206;16.340;2022-10-16T13:43:23;18.77;;;17.13;;
16330;SDS011;8275;48.206;16.340;2022-10-16T13:45:58;18.08;;;15.50;;
16330;SDS011;8275;48.206;16.340;2022-10-16T13:48:29;18.25;;;16.50;;
16330;SDS011;8275;48.206;16.340;2022-10-16T13:51:00;19.45;;;17.48;;
16330;SDS011;8275;48.206;16.340;2022-10-16T13:53:34;15.95;;;14.57;;
16330;SDS011;8275;48.206;16.340;2022-10-16T13:56:04;19.70;;;17.77;;
16330;SDS011;8275;48.206;16.340;2022-10-16T13:58:34;18.63;;;16.95;;
16330;SDS011;8275;48.206;16.340;2022-10-16T14:01:05;31.00;;;16.90;;
16330;SDS011;8275;48.206;16.340;2022-10-16T14:03:44;16.90;;;15.18;;
16330;SDS011;8275;48.206;16.340;2022-10-16T14:06:15;17.08;;;15.43;;
16330;SDS011;8275;48.206;16.340;2022-10-16T14:08:48;16.40;;;14.90;;
16330;SDS011;8275;48.206;16.340;2022-10-16T14:11:28;18.15;;;16.25;;
16330;SDS011;8275;48.206;16.340;2022-10-16T14:13:57;16.35;;;14.82;;
16330;SDS011;8275;48.206;16.340;2022-10-16T14:16:27;20.25;;;18.15;;
16330;SDS011;8275;48.206;16.340;2022-10-16T14:18:59;16.80;;;15.05;;
16330;SDS011;8275;48.206;16.340;2022-10-16T14:21:33;30.20;;;17.13;;
16330;SDS011;8275;48.206;16.340;2022-10-16T14:24:10;17.75;;;15.73;;
16330;SDS011;8275;48.206;16.340;2022-10-16T14:26:40;18.98;;;15.15;;
16330;SDS011;8275;48.206;16.340;2022-10-16T14:29:17;17.45;;;15.88;;
16330;SDS011;8275;48.206;16.340;2022-10-16T14:31:55;23.60;;;14.80;;
16330;SDS011;8275;48.206;16.340;2022-10-16T14:34:26;15.98;;;13.93;;
16330;SDS011;8275;48.206;16.340;2022-10-16T14:37:00;16.55;;;14.25;;
16330;SDS011;8275;48.206;16.340;2022-10-16T14:39:39;19.92;;;17.55;;
16330;SDS011;8275;48.206;16.340;2022-10-16T14:42:11;17.92;;;16.13;;
16330;SDS011;8275;48.206;16.340;2022-10-16T14:44:45;27.10;;;24.38;;
16330;SDS011;8275;48.206;16.340;2022-10-16T14:47:17;19.05;;;16.35;;
16330;SDS011;8275;48.206;16.340;2022-10-16T14:49:52;16.30;;;13.43;;
16330;SDS011;8275;48.206;16.340;2022-10-16T14:52:22;14.60;;;13.18;;
16330;SDS011;8275;48.206;16.340;2022-10-16T14:54:51;15.32;;;13.25;;
16330;SDS011;8275;48.206;16.340;2022-10-16T14:57:22;15.63;;;13.98;;
16330;SDS011;8275;48.206;16.340;2022-10-16T14:59:55;14.65;;;13.30;;
16330;SDS011;8275;48.206;16.340;2022-10-16T15:02:27;14.40;;;12.57;;
16330;SDS011;8275;48.206;16.340;2022-10-16T15:04:57;17.35;;;15.60;;